Chulmleigh, United Kingdom
Current Conditions -  °F | °C
As of 12:50 AM on Tuesday 27 Jan 2015 (Local Time) from EGTE Reporting Station
Few Clouds Few Clouds  
Wind Chill: 34°   Ceiling: Unl
Heat Index: 39°   Visibility: 6mi
Dew Point: 37°   Wind: 7mph
Humidity: 93%   Direction: 320°NW
Pressure: 30.45"   Gusts: NA
Location:  50.92°N, 3.87°W
Report Text: EGTE 270050Z 32006KT 9999 FEW040 04/03 Q1031
Loading
Personal Weather Stations






























Interactive Weather Map New forecast layout! Learn more

10-Day Weather Forecast

Advertisements
Track Severe Weather on mobile